Capitol Logistics 907

Operating for DHL



EDDK
Cologne Bonn Airport
Cologne, DE
EDDP
Leipzig Halle Airport
Leipzig, DE

Activity Log

Date Flight Route Aircraft Duration
11/18/2021 CPX904 PODI1Q PODIP Y867 PELUN Y870 ABSUL Z858 BERDI T958 KOJEC KOJE1V A30F 0h 57m
09/16/2021 CPX904 PODI8B PODIP KUMIK L603 BIGSU TOBAK N858 IXUVU GOT GOT1L A30F 1h 00m

Route Details

Aircraft Information
Group: European Fleet
Types: A30F,A31F,B738
Route Data
Demand: M
Distance: 195nm
Duration: 1h 10m
Recm'd Route: PODIP Y867 PELUN Y870 ABSUL Z858 BERDI T958 KOJEC
Origin Wx: EDDK 242120Z AUTO 13004KT CAVOK 10/09 Q1012 NOSIG
Dest. Wx: EDDP 242050Z 26008KT CAVOK 13/08 Q1011 NOSIG
Notes:

Financial History
Total Freight: 151,847lbs
Average Load: 75,924lbs/flt
Fuel Used: 25,022lbs
Avg. Fuel Used: 12,511lbs/flt
Fuel Expense: $6,876
Avg. Fuel Expense: $3,438
Avg. Fuel Cost: $0.27/lbs
Total Gross Income: $309,920
Pilot Pay: $518
Total Expenses: $41,217
Total Revenue: $261,418
Average Revenue: $154,959.86